Gary, Indiana
Current Conditions -  °F | °C
As of 6:45 PM on Friday 28 Nov 2014 (Local Time) from KGYY Reporting Station
Overcast Overcast  
Wind Chill: 27°   Ceiling: 2400
Heat Index: 34°   Visibility: 10mi
Dew Point: 25°   Wind: 8mph
Humidity: 70%   Direction: 150°SSE
Pressure: 30"   Gusts: NA
Location:  41.6°N, 87.34°W
Report Text: KGYY 290045Z 15007KT 10SM OVC024 01/M04 A3000
Loading
Personal Weather Stations






























Interactive Weather Map New forecast layout! Learn more

10-Day Weather Forecast

Advertisements
Track Severe Weather on mobile